Airfield :
LOGIN :

Register | Disclaimer

   EN    FR    IT 

 










Legend :    VFR   Marginal VFR   IFR   Intensive IFR   Very Intensive IFR
Visi :
Ceiling :
>= 8 km
>= 3000ft
5 to 8 km
1000 to 3000 ft
1500m to 5 km
500 to 1000 ft
800 to 1500m
200 to 500 ft
< 800m
< 200 ft
Symbols :   Thunderstorms  Fog  Heavy snow  Heavy precipitations  Wind > 20 kt
SIGMETs :     Misc.  Thunderstorms  Icing  Turbulence  Mountain Waves  Volcanic Ashes






- Airport Elevation : 614 ft
- IATA code : CRL


EBCI - Charleroi

CURRENT METAR :
  • 271650Z 30011KT 270V330 9999 SCT005 BKN007 02/01 Q1001 TEMPO 30015G25KT 4000 SHRAGS

EXPIRED METARs :
  • 271620Z 30008KT 270V330 3500 -SNRA SCT002 BKN004 01/00 Q0999 TEMPO 1200 SN
  • 271550Z 32010KT 290V350 2500 -SNRA SCT002 BKN004 01/M00 Q0998 TEMPO 1200 SN
  • 271520Z 32010KT 290V350 4500 -SN SCT002 BKN004 01/M00 Q0996 TEMPO 1200 SN
  • 271450Z 33009KT 300V360 1200 R24/1700U SN SCT002 BKN004 00/M01 Q0994 RERA TEMPO 0900 SN
  • 271420Z 33007KT 290V360 1200 R24/1800N SN SCT002 BKN004 00/M01 Q0993 RERA BECMG 2000 -SN BKN006

TAF TAF EBCI
Valid from the 27 at 12:00 until the 28 at 18:00 UTC


271110Z 2712/2818 09008KT 4000 -SNRA BKN006
TEMPO 2712/2718 2500 SNRA BKN004
TEMPO 2712/2718 0500 SN BKN002
BECMG 2716/2719 30015G25KT 9999 NSW FEW012 SCT030
PROB30
TEMPO 2719/2722 4000 SHRAGS
BECMG 2721/2723 26008KT
BECMG 2810/2812 18012G22KT
TEMPO 2815/2818 4000 RA BKN008



MET'MAP, your aeronautical weather chart ! - Copyright ORBIFLY December 2007 - Disclaimer

ORBIFLY MET'MAP TEAM :

Programming & Development : Alexandra Zaïnal
Concept & original design : Baudouin d'Aumeries
Assistance for programming : Marc-Olivier Méhu
Technical & hardware support : Manuel Goepfert

Contact : metmap@orbifly.com




SOURCES & CREDITS :

   NOAA